Deer Creek, IL (61733)

8:49 PM CST on February 07, 2016 (GMT -0600)
Oak Valley | | Change Station
CLOSE
Current Station
Personal Weather Station
Location: Goodfield, IL
Elevation: 764 ft
Nearby Weather Stations

Elev 764 ft 40.61 °N, 89.27 °W | Updated 1 second ago

Clear
Clear
33.3 °F
Feels Like 33 °F
N
0.0
Wind Variable Wind from WSW
Gusts 5.0 mph

Today
High -- | Low -- °F
--% Chance of Precip.
Yesterday
High -- | Low -- °F
Precip. -- in
Pressure 29.84 in
Visibility 10.0 miles
Clouds Clear
Windchill 33 °F
Dew Point 28 °F
Humidity 81%
Rainfall 0.00 in
Snow Depth Not available.
7:01 AM 5:22 PM
Waning Crescent, 0% visible
METAR KPIA 080154Z 30007KT 10SM CLR 04/M03 A2982 RMK AO2 SLP104 T00391033 $
Pressure 29.84 in
Visibility 10.0 miles
Clouds Clear
Windchill 33 °F
Dew Point 28 °F
Humidity 81%
Rainfall 0.00 in
Snow Depth Not available.
7:01 AM 5:22 PM
Waning Crescent, 0% visible
METAR KPIA 080154Z 30007KT 10SM CLR 04/M03 A2982 RMK AO2 SLP104 T00391033 $

10-Day Weather Forecast

Almanac

Astronomy

Feb. 07, 2016 Rise Set
Actual Time
Civil Twilight
Nautical Twilight
Astronomical Twilight
Moon
Length of Visible Light
Length of Day
Tomorrow will be .
, % of the Moon is Illuminated

Today's Extremes

State Highs State Lows

Community

WunderPhotos

Upload Photos

1,891,373 photos uploaded!

WunderBlog® & News

Nearby

Air Quality

  Air Quality AQ Index Pollutant
Not available.

Snow Depth

Station Depth Elevation

Earthquake Activity

City Distance Mag. Time & Date
Minimum magnitude displayed is 2.5.

Coastal Water Temperatures

Place Temperature

Stations

Nearby Weather Stations

Station Location Temp. Windchill Dew Point Humidity Wind Precip. Elev Updated Type
                   

Watches & Warnings

There are currently no watches in effect.